createdAt,value
2018-11-14T00:01:18.128Z,7.29
2018-11-14T00:04:21.634Z,7.33
2018-11-14T00:07:25.113Z,7.40
2018-11-14T00:10:28.520Z,7.44
2018-11-14T00:13:32.087Z,7.37
2018-11-14T00:16:35.756Z,7.43
2018-11-14T00:19:39.585Z,7.47
2018-11-14T00:22:44.304Z,7.47
2018-11-14T00:25:47.926Z,7.44
2018-11-14T00:28:51.383Z,7.40
2018-11-14T00:31:54.879Z,7.33
2018-11-14T00:34:58.887Z,7.31
2018-11-14T00:38:01.947Z,7.11
2018-11-14T00:41:05.390Z,6.95
2018-11-14T00:44:08.780Z,6.98
2018-11-14T00:47:12.180Z,6.96
2018-11-14T00:50:16.437Z,6.92
2018-11-14T00:53:19.902Z,6.90
2018-11-14T00:56:23.371Z,6.79
2018-11-14T00:59:26.913Z,6.72
2018-11-14T01:02:30.334Z,6.75
2018-11-14T01:05:34.884Z,6.81
2018-11-14T01:08:38.403Z,6.88
2018-11-14T01:11:42.986Z,6.87
2018-11-14T01:14:46.579Z,6.89
2018-11-14T01:17:50.086Z,6.90
2018-11-14T01:20:53.488Z,6.67
2018-11-14T01:23:58.175Z,6.58
2018-11-14T01:27:01.804Z,6.47
2018-11-14T01:30:08.400Z,6.48
2018-11-14T01:33:11.974Z,6.44
2018-11-14T01:36:15.502Z,6.42
2018-11-14T01:39:19.062Z,6.47
2018-11-14T01:42:22.628Z,6.54
2018-11-14T01:45:28.123Z,6.59
2018-11-14T01:48:33.609Z,6.68
2018-11-14T01:51:38.221Z,6.71
2018-11-14T01:54:41.688Z,6.77
2018-11-14T01:57:45.213Z,6.69
2018-11-14T02:00:48.690Z,6.63
2018-11-14T02:03:52.183Z,6.66
2018-11-14T02:06:55.699Z,6.64
2018-11-14T02:09:59.260Z,6.68
2018-11-14T02:13:02.784Z,6.67
2018-11-14T02:16:06.979Z,6.72
2018-11-14T02:19:10.412Z,6.75
2018-11-14T02:22:15.125Z,6.70
2018-11-14T02:25:18.801Z,6.58
2018-11-14T02:28:22.346Z,6.53
2018-11-14T02:31:25.929Z,6.55
2018-11-14T02:34:29.580Z,6.43
2018-11-14T02:37:33.090Z,6.37
2018-11-14T02:40:36.696Z,6.30
2018-11-14T02:43:40.380Z,6.23
2018-11-14T02:46:43.967Z,6.20
2018-11-14T02:49:47.561Z,6.23
2018-11-14T02:52:51.103Z,6.19
2018-11-14T02:56:09.552Z,6.22
2018-11-14T02:59:13.096Z,6.22
2018-11-14T03:02:16.640Z,6.20
2018-11-14T03:05:20.257Z,6.24
2018-11-14T03:08:24.037Z,6.25
2018-11-14T03:11:27.541Z,6.28
2018-11-14T03:14:31.172Z,6.25
2018-11-14T03:17:34.709Z,6.17
2018-11-14T03:20:38.378Z,6.09
2018-11-14T03:23:42.021Z,6.12
2018-11-14T03:26:45.522Z,6.16
2018-11-14T03:29:49.122Z,6.15
2018-11-14T03:32:52.674Z,6.22
2018-11-14T03:36:01.641Z,6.26
2018-11-14T03:39:08.646Z,6.25
2018-11-14T03:42:12.228Z,6.30
2018-11-14T03:45:16.303Z,6.28
2018-11-14T03:48:19.840Z,6.29
2018-11-14T03:51:23.441Z,6.36
2018-11-14T03:54:27.004Z,6.55
2018-11-14T03:57:30.560Z,6.66
2018-11-14T04:00:34.160Z,6.69
2018-11-14T04:03:38.312Z,6.75
2018-11-14T04:06:41.814Z,6.76
2018-11-14T04:09:45.568Z,6.76
2018-11-14T04:12:49.507Z,6.84
2018-11-14T04:15:54.128Z,6.85
2018-11-14T04:18:57.777Z,6.89
2018-11-14T04:22:01.314Z,6.93
2018-11-14T04:25:05.345Z,6.92
2018-11-14T04:28:08.897Z,6.92
2018-11-14T04:31:13.481Z,6.98
2018-11-14T04:34:17.002Z,7.05
2018-11-14T04:37:20.532Z,7.12
2018-11-14T04:40:24.942Z,7.14
2018-11-14T04:43:28.825Z,7.14
2018-11-14T04:46:32.395Z,7.15
2018-11-14T04:49:36.025Z,7.13
2018-11-14T04:52:39.829Z,7.08
2018-11-14T04:55:43.437Z,7.05
2018-11-14T04:58:46.877Z,7.08
2018-11-14T05:01:50.761Z,7.10
2018-11-14T05:04:55.613Z,7.13
2018-11-14T05:11:46.177Z,7.19
2018-11-14T05:15:13.449Z,7.21
2018-11-14T05:18:33.731Z,7.21
2018-11-14T05:25:14.835Z,7.29
2018-11-14T05:28:34.479Z,7.26
2018-11-14T05:35:19.106Z,7.26
2018-11-14T05:38:41.816Z,7.20
2018-11-14T05:45:43.836Z,6.96
2018-11-14T05:49:09.980Z,6.73
2018-11-14T05:52:31.013Z,6.77
2018-11-14T05:55:56.816Z,6.68
2018-11-14T06:03:31.032Z,6.60
2018-11-14T06:06:55.921Z,6.62
2018-11-14T06:10:20.299Z,6.63
2018-11-14T06:13:37.790Z,6.61
2018-11-14T06:16:57.290Z,6.62
2018-11-14T06:20:19.173Z,6.69
2018-11-14T06:23:38.175Z,6.70
2018-11-14T06:26:55.845Z,6.88
2018-11-14T06:30:16.415Z,6.95
2018-11-14T06:33:39.666Z,6.94
2018-11-14T06:37:02.000Z,6.92
2018-11-14T06:40:30.940Z,6.89
2018-11-14T06:47:20.410Z,6.88
2018-11-14T06:50:44.528Z,7.16
2018-11-14T06:54:04.601Z,7.49
2018-11-14T06:57:23.331Z,7.48
2018-11-14T07:00:37.962Z,7.63
2018-11-14T07:03:52.969Z,7.47
2018-11-14T07:07:02.972Z,7.17
2018-11-14T07:10:23.883Z,6.99
2018-11-14T07:13:38.771Z,6.89
2018-11-14T07:16:53.538Z,6.90
2018-11-14T07:20:06.048Z,6.90
2018-11-14T07:30:18.820Z,7.05
2018-11-14T07:33:22.543Z,7.10
2018-11-14T07:36:26.185Z,7.09
2018-11-14T07:39:29.647Z,7.09
2018-11-14T07:42:33.182Z,7.18
2018-11-14T07:45:36.799Z,7.22
2018-11-14T07:48:41.530Z,7.25
2018-11-14T07:51:45.091Z,7.30
2018-11-14T07:54:48.578Z,7.33
2018-11-14T07:57:52.013Z,7.36
2018-11-14T08:00:56.119Z,7.45
2018-11-14T08:04:00.230Z,7.52
2018-11-14T08:07:03.979Z,7.51
2018-11-14T08:10:09.844Z,7.55
2018-11-14T08:13:13.561Z,7.45
2018-11-14T08:16:17.268Z,7.45
2018-11-14T08:19:20.965Z,7.53
2018-11-14T08:22:24.674Z,7.52
2018-11-14T08:25:30.642Z,7.52
2018-11-14T08:28:34.332Z,7.46
2018-11-14T08:31:37.961Z,7.52
2018-11-14T08:34:41.673Z,7.53
2018-11-14T08:37:45.432Z,7.63
2018-11-14T08:40:48.976Z,7.65
2018-11-14T08:43:53.385Z,7.57
2018-11-14T08:46:56.852Z,7.52
2018-11-14T08:50:00.361Z,7.62
2018-11-14T08:53:04.181Z,7.69
2018-11-14T08:56:07.864Z,7.82
2018-11-14T08:59:12.436Z,7.89
2018-11-14T09:02:16.051Z,7.96
2018-11-14T09:05:19.521Z,7.95
2018-11-14T09:08:23.069Z,7.99
2018-11-14T09:11:26.826Z,8.08
2018-11-14T09:14:30.618Z,8.05
2018-11-14T09:17:35.121Z,8.02
2018-11-14T09:20:38.754Z,8.02
2018-11-14T09:23:42.273Z,8.06
2018-11-14T09:26:45.774Z,8.20
2018-11-14T09:29:49.389Z,8.27
2018-11-14T09:32:53.053Z,8.23
2018-11-14T09:35:56.493Z,8.31
2018-11-14T09:39:00.097Z,8.50
2018-11-14T09:42:03.831Z,8.62
2018-11-14T09:45:09.607Z,8.83
2018-11-14T09:48:13.213Z,8.89
2018-11-14T09:51:16.756Z,8.99
2018-11-14T09:54:20.313Z,9.09
2018-11-14T09:57:23.688Z,9.09
2018-11-14T10:00:28.555Z,9.11
2018-11-14T10:03:32.141Z,9.24
2018-11-14T10:06:35.566Z,9.36
2018-11-14T10:09:39.378Z,9.60
2018-11-14T10:12:43.184Z,9.83
2018-11-14T10:15:46.864Z,9.82
2018-11-14T10:18:51.568Z,9.85
2018-11-14T10:21:55.318Z,9.83
2018-11-14T10:24:58.838Z,9.88
2018-11-14T10:28:02.434Z,9.95
2018-11-14T10:31:06.097Z,10.08
2018-11-14T10:34:09.594Z,10.18
2018-11-14T10:37:14.141Z,10.35
2018-11-14T10:40:20.483Z,10.43
2018-11-14T10:43:24.047Z,10.51
2018-11-14T10:46:27.735Z,10.62
2018-11-14T10:49:31.404Z,10.78
2018-11-14T10:52:34.887Z,10.74
2018-11-14T10:55:38.866Z,10.84
2018-11-14T10:58:42.508Z,11.02
2018-11-14T11:01:51.361Z,11.04
2018-11-14T11:05:00.234Z,11.29
2018-11-14T11:08:09.505Z,11.42
2018-11-14T11:11:19.480Z,11.43
2018-11-14T11:14:28.333Z,11.65
2018-11-14T11:17:37.180Z,11.84
2018-11-14T11:20:40.881Z,11.95
2018-11-14T11:23:44.449Z,12.03
2018-11-14T11:26:48.099Z,12.09
2018-11-14T11:29:51.706Z,12.14
2018-11-14T11:32:55.172Z,12.19
2018-11-14T11:35:58.720Z,12.00
2018-11-14T11:39:02.546Z,12.14
2018-11-14T11:42:06.332Z,12.12
2018-11-14T11:45:09.864Z,12.14
2018-11-14T11:48:13.468Z,12.14
2018-11-14T11:51:17.022Z,12.23
2018-11-14T11:54:20.543Z,12.29
2018-11-14T11:57:24.013Z,12.34
2018-11-14T12:00:27.622Z,12.25
2018-11-14T12:03:31.014Z,12.46
2018-11-14T12:06:34.622Z,12.68
2018-11-14T12:09:38.047Z,12.78
2018-11-14T12:12:42.356Z,12.89
2018-11-14T12:15:46.061Z,12.93
2018-11-14T12:18:49.710Z,12.90
2018-11-14T12:21:53.480Z,12.92
2018-11-14T12:24:57.195Z,12.84
2018-11-14T12:28:00.671Z,12.82
2018-11-14T12:31:05.729Z,12.75
2018-11-14T12:34:09.019Z,12.74
2018-11-14T12:37:12.598Z,12.82
2018-11-14T12:40:16.091Z,12.77
2018-11-14T12:43:19.674Z,12.76
2018-11-14T12:46:23.054Z,12.74
2018-11-14T12:49:26.532Z,12.80
2018-11-14T12:52:30.065Z,12.86
2018-11-14T12:55:33.568Z,12.92
2018-11-14T12:58:37.105Z,12.95
2018-11-14T13:01:40.644Z,12.90
2018-11-14T13:04:44.072Z,12.97
2018-11-14T13:07:47.653Z,13.11
2018-11-14T13:10:51.197Z,13.11
2018-11-14T13:13:54.694Z,13.17
2018-11-14T13:16:58.094Z,13.13
2018-11-14T13:20:01.684Z,13.33
2018-11-14T13:23:05.159Z,13.44
2018-11-14T13:26:11.079Z,13.54
2018-11-14T13:29:14.604Z,13.56
2018-11-14T13:32:18.295Z,13.65
2018-11-14T13:35:22.650Z,13.76
2018-11-14T13:38:26.155Z,13.82
2018-11-14T13:41:30.752Z,13.91
2018-11-14T13:44:34.287Z,14.10
2018-11-14T13:47:38.268Z,14.14
2018-11-14T13:50:42.038Z,14.27
2018-11-14T13:53:46.018Z,14.12
2018-11-14T13:56:49.592Z,13.51
2018-11-14T13:59:53.041Z,12.95
2018-11-14T14:02:56.537Z,12.58
2018-11-14T14:06:00.025Z,12.13
2018-11-14T14:09:05.073Z,11.77
2018-11-14T14:12:08.639Z,11.37
2018-11-14T14:15:17.332Z,11.09
2018-11-14T14:18:20.805Z,10.82
2018-11-14T14:21:24.588Z,10.62
2018-11-14T14:24:28.018Z,10.47
2018-11-14T14:27:31.721Z,10.41
2018-11-14T14:30:35.291Z,10.39
2018-11-14T14:33:38.788Z,10.13
2018-11-14T14:36:42.561Z,9.75
2018-11-14T14:39:46.036Z,9.78
2018-11-14T14:42:49.578Z,9.63
2018-11-14T14:45:53.051Z,9.58
2018-11-14T14:48:56.543Z,9.04
2018-11-14T14:52:00.074Z,8.88
2018-11-14T14:55:03.563Z,8.69
2018-11-14T14:58:07.058Z,8.59
2018-11-14T15:01:10.608Z,8.48
2018-11-14T15:04:14.043Z,8.36
2018-11-14T15:07:17.483Z,8.32
2018-11-14T15:10:22.306Z,8.29
2018-11-14T15:13:25.767Z,8.23
2018-11-14T15:16:29.436Z,8.21
2018-11-14T15:19:32.925Z,8.13
2018-11-14T15:22:36.391Z,8.12
2018-11-14T15:25:39.834Z,7.85
2018-11-14T15:28:43.298Z,7.48
2018-11-14T15:31:46.916Z,7.61
2018-11-14T15:34:50.469Z,7.68
2018-11-14T15:37:54.012Z,7.80
2018-11-14T15:40:57.574Z,7.86
2018-11-14T15:44:01.149Z,7.82
2018-11-14T15:47:04.824Z,7.79
2018-11-14T15:50:13.713Z,7.78
2018-11-14T15:53:17.214Z,7.73
2018-11-14T15:56:20.947Z,7.65
2018-11-14T15:59:24.472Z,7.57
2018-11-14T16:02:29.062Z,7.61
2018-11-14T16:05:33.629Z,7.78
2018-11-14T16:08:37.118Z,7.74
2018-11-14T16:11:40.703Z,7.68
2018-11-14T16:14:44.248Z,7.65
2018-11-14T16:17:47.942Z,7.62
2018-11-14T16:20:51.482Z,7.74
2018-11-14T16:23:55.014Z,7.87
2018-11-14T16:26:58.564Z,7.87
2018-11-14T16:30:02.362Z,7.78
2018-11-14T16:33:07.162Z,7.66
2018-11-14T16:36:10.817Z,7.79
2018-11-14T16:39:14.358Z,7.91
2018-11-14T16:42:18.110Z,7.90
2018-11-14T16:45:21.670Z,7.72
2018-11-14T16:48:25.212Z,7.79
2018-11-14T16:51:28.752Z,7.78
2018-11-14T16:54:32.298Z,7.72
2018-11-14T16:57:36.420Z,7.54
2018-11-14T17:00:41.008Z,7.44
2018-11-14T17:03:45.845Z,7.45
2018-11-14T17:06:49.403Z,7.40
2018-11-14T17:09:53.060Z,7.41
2018-11-14T17:12:58.399Z,7.36
2018-11-14T17:16:02.164Z,7.47
2018-11-14T17:19:06.161Z,7.42
2018-11-14T17:22:09.726Z,7.51
2018-11-14T17:25:14.293Z,7.50
2018-11-14T17:28:17.913Z,7.51
2018-11-14T17:31:21.359Z,7.45
2018-11-14T17:34:24.904Z,7.48
2018-11-14T17:37:28.529Z,7.49
2018-11-14T17:40:32.337Z,7.71
2018-11-14T17:43:35.819Z,7.66
2018-11-14T17:46:39.309Z,7.74
2018-11-14T17:49:42.840Z,7.62
2018-11-14T17:52:47.242Z,7.48
2018-11-14T17:55:50.712Z,7.52
2018-11-14T17:58:54.306Z,7.58
2018-11-14T18:01:57.752Z,7.31
2018-11-14T18:05:01.216Z,7.15
2018-11-14T18:08:05.115Z,7.39
2018-11-14T18:11:08.583Z,7.46
2018-11-14T18:14:12.080Z,7.69
2018-11-14T18:17:15.581Z,7.74
2018-11-14T18:20:21.168Z,7.73
2018-11-14T18:23:24.953Z,7.75
2018-11-14T18:26:28.972Z,7.76
2018-11-14T18:29:32.883Z,7.66
2018-11-14T18:32:36.513Z,7.75
2018-11-14T18:35:40.205Z,7.81
2018-11-14T18:38:44.470Z,7.92
2018-11-14T18:41:48.752Z,7.79
2018-11-14T18:44:52.666Z,7.72
2018-11-14T18:47:57.110Z,7.71
2018-11-14T18:51:00.625Z,7.76
2018-11-14T18:54:04.173Z,7.76
2018-11-14T18:57:07.706Z,7.76
2018-11-14T19:00:14.849Z,7.57
2018-11-14T19:03:18.782Z,7.61
2018-11-14T19:06:22.321Z,7.69
2018-11-14T19:09:25.850Z,7.76
2018-11-14T19:12:29.363Z,7.70
2018-11-14T19:15:34.278Z,7.59
2018-11-14T19:18:37.969Z,7.46
2018-11-14T19:21:41.449Z,7.34
2018-11-14T19:24:45.048Z,7.35
2018-11-14T19:27:49.056Z,7.34
2018-11-14T19:30:52.656Z,7.36
2018-11-14T19:33:56.196Z,7.19
2018-11-14T19:36:59.784Z,7.19
2018-11-14T19:40:03.374Z,7.38
2018-11-14T19:43:12.408Z,7.54
2018-11-14T19:46:16.025Z,7.66
2018-11-14T19:49:20.025Z,7.72
2018-11-14T19:52:24.808Z,7.75
2018-11-14T19:55:29.477Z,7.79
2018-11-14T19:58:33.252Z,7.81
2018-11-14T20:01:37.271Z,7.76
2018-11-14T20:04:40.986Z,7.77
2018-11-14T20:07:45.228Z,7.73
2018-11-14T20:10:48.981Z,7.78
2018-11-14T20:13:53.467Z,7.78
2018-11-14T20:16:57.089Z,7.67
2018-11-14T20:20:03.035Z,7.73
2018-11-14T20:23:06.547Z,7.79
2018-11-14T20:26:10.173Z,7.79
2018-11-14T20:29:13.652Z,7.73
2018-11-14T20:32:17.328Z,7.69
2018-11-14T20:35:21.701Z,7.64
2018-11-14T20:38:25.249Z,7.59
2018-11-14T20:41:28.905Z,7.61
2018-11-14T20:44:32.548Z,7.65
2018-11-14T20:47:35.993Z,7.65
2018-11-14T20:50:40.593Z,7.65
2018-11-14T20:53:44.155Z,7.65
2018-11-14T20:56:47.682Z,7.68
2018-11-14T20:59:51.265Z,7.67
2018-11-14T21:02:56.508Z,7.65
2018-11-14T21:06:00.097Z,7.67
2018-11-14T21:09:04.667Z,7.72
2018-11-14T21:12:08.196Z,7.72
2018-11-14T21:15:14.974Z,7.70
2018-11-14T21:18:18.382Z,7.68
2018-11-14T21:21:22.089Z,7.71
2018-11-14T21:24:25.797Z,7.70
2018-11-14T21:27:29.545Z,7.76
2018-11-14T21:30:33.179Z,7.78
2018-11-14T21:33:36.745Z,7.79
2018-11-14T21:36:40.415Z,7.74
2018-11-14T21:39:44.019Z,7.80
2018-11-14T21:42:47.540Z,7.77
2018-11-14T21:45:51.175Z,7.74
2018-11-14T21:48:54.799Z,7.78
2018-11-14T21:51:59.368Z,7.74
2018-11-14T21:55:03.185Z,7.71
2018-11-14T21:58:06.914Z,7.80
2018-11-14T22:01:10.639Z,7.80
2018-11-14T22:04:16.261Z,7.79
2018-11-14T22:07:19.861Z,7.80
2018-11-14T22:10:24.186Z,7.81
2018-11-14T22:13:28.795Z,7.81
2018-11-14T22:16:32.338Z,7.83
2018-11-14T22:19:36.303Z,7.82
2018-11-14T22:22:40.532Z,7.81
2018-11-14T22:25:44.341Z,7.84
2018-11-14T22:28:47.842Z,7.84
2018-11-14T22:31:51.387Z,7.85
2018-11-14T22:34:55.016Z,7.82
2018-11-14T22:37:58.579Z,7.87
2018-11-14T22:41:03.200Z,7.85
2018-11-14T22:44:06.862Z,7.86
2018-11-14T22:47:10.432Z,7.92
2018-11-14T22:50:15.233Z,7.99
2018-11-14T22:53:18.674Z,7.99
2018-11-14T22:56:22.205Z,8.00
2018-11-14T22:59:25.770Z,8.03
2018-11-14T23:02:29.365Z,8.06
2018-11-14T23:05:32.958Z,8.10
2018-11-14T23:08:36.449Z,8.12
2018-11-14T23:11:40.131Z,8.12
2018-11-14T23:14:43.755Z,8.16
2018-11-14T23:17:47.363Z,8.19
2018-11-14T23:20:50.890Z,8.13
2018-11-14T23:23:54.432Z,8.12
2018-11-14T23:26:57.975Z,8.13
2018-11-14T23:30:01.422Z,8.14
2018-11-14T23:33:05.084Z,8.13
2018-11-14T23:36:08.587Z,8.19
2018-11-14T23:39:13.723Z,8.08
2018-11-14T23:42:17.332Z,8.09
2018-11-14T23:45:21.743Z,8.10
2018-11-14T23:48:25.257Z,8.10
2018-11-14T23:51:28.813Z,8.07
2018-11-14T23:54:32.315Z,8.11
2018-11-14T23:57:35.818Z,8.13
